createdAt,value
2019-02-06T00:01:04.879Z,88.45
2019-02-06T00:03:45.034Z,88.40
2019-02-06T00:06:14.629Z,88.28
2019-02-06T00:08:46.219Z,88.01
2019-02-06T00:11:17.429Z,87.68
2019-02-06T00:13:46.694Z,87.37
2019-02-06T00:16:16.430Z,87.40
2019-02-06T00:18:45.694Z,87.57
2019-02-06T00:21:15.106Z,87.85
2019-02-06T00:23:44.351Z,87.94
2019-02-06T00:26:14.112Z,88.04
2019-02-06T00:28:45.055Z,88.28
2019-02-06T00:31:14.418Z,88.56
2019-02-06T00:33:43.682Z,88.61
2019-02-06T00:36:15.319Z,88.60
2019-02-06T00:38:44.669Z,88.61
2019-02-06T00:41:13.958Z,88.48
2019-02-06T00:43:43.323Z,88.42
2019-02-06T00:46:12.619Z,88.39
2019-02-06T00:48:42.199Z,88.53
2019-02-06T00:51:11.479Z,88.70
2019-02-06T00:53:43.263Z,88.66
2019-02-06T00:56:13.995Z,88.70
2019-02-06T00:58:44.311Z,88.27
2019-02-06T01:01:13.613Z,88.15
2019-02-06T01:03:42.886Z,88.41
2019-02-06T01:06:13.346Z,88.69
2019-02-06T01:08:43.213Z,88.85
2019-02-06T01:11:12.458Z,89.01
2019-02-06T01:13:42.087Z,89.27
2019-02-06T01:16:11.363Z,89.69
2019-02-06T01:18:42.009Z,89.86
2019-02-06T01:21:11.355Z,89.95
2019-02-06T01:23:41.414Z,89.96
2019-02-06T01:26:11.041Z,90.06
2019-02-06T01:28:40.650Z,90.39
2019-02-06T01:31:34.825Z,90.16
2019-02-06T01:34:05.708Z,89.85
2019-02-06T01:36:35.266Z,89.85
2019-02-06T01:39:08.942Z,89.78
2019-02-06T01:41:39.927Z,89.58
2019-02-06T01:44:09.192Z,89.68
2019-02-06T01:46:38.453Z,89.49
2019-02-06T01:49:09.640Z,89.56
2019-02-06T01:51:39.536Z,89.57
2019-02-06T01:54:08.803Z,89.48
2019-02-06T01:56:38.345Z,89.30
2019-02-06T01:59:07.577Z,89.26
2019-02-06T02:01:36.946Z,89.11
2019-02-06T02:04:06.598Z,89.00
2019-02-06T02:06:36.034Z,89.18
2019-02-06T02:09:15.029Z,89.05
2019-02-06T02:11:44.603Z,89.36
2019-02-06T02:14:13.901Z,89.79
2019-02-06T02:16:44.155Z,90.01
2019-02-06T02:19:14.192Z,90.21
2019-02-06T02:21:46.496Z,90.40
2019-02-06T02:24:15.772Z,90.71
2019-02-06T02:26:46.363Z,90.80
2019-02-06T02:29:15.635Z,90.64
2019-02-06T02:31:45.344Z,90.72
2019-02-06T02:34:14.606Z,91.05
2019-02-06T02:36:43.855Z,91.31
2019-02-06T02:39:13.253Z,91.25
2019-02-06T02:41:42.467Z,91.52
2019-02-06T02:44:11.758Z,91.40
2019-02-06T02:46:41.175Z,91.51
2019-02-06T02:49:13.958Z,91.40
2019-02-06T02:51:44.395Z,91.44
2019-02-06T02:54:13.863Z,91.29
2019-02-06T02:56:43.132Z,91.29
2019-02-06T02:59:14.013Z,91.46
2019-02-06T03:02:06.960Z,91.48
2019-02-06T03:04:42.009Z,91.64
2019-02-06T03:07:11.257Z,91.88
2019-02-06T03:09:40.783Z,91.89
2019-02-06T03:12:12.417Z,92.00
2019-02-06T03:14:41.967Z,92.09
2019-02-06T03:17:12.489Z,91.99
2019-02-06T03:19:44.059Z,91.72
2019-02-06T03:22:13.309Z,91.54
2019-02-06T03:24:43.228Z,91.48
2019-02-06T03:27:12.482Z,91.63
2019-02-06T03:29:41.744Z,91.51
2019-02-06T03:32:10.957Z,91.52
2019-02-06T03:34:42.910Z,91.59
2019-02-06T03:37:13.126Z,91.53
2019-02-06T03:39:42.780Z,91.69
2019-02-06T03:42:12.171Z,91.54
2019-02-06T03:44:41.518Z,91.07
2019-02-06T03:47:11.768Z,91.04
2019-02-06T03:49:42.763Z,90.93
2019-02-06T03:52:11.983Z,90.89
2019-02-06T03:54:41.212Z,91.05
2019-02-06T03:57:10.462Z,90.88
2019-02-06T03:59:39.731Z,90.52
2019-02-06T04:02:10.400Z,90.32
2019-02-06T04:04:39.617Z,90.12
2019-02-06T04:07:09.149Z,89.80
2019-02-06T04:09:38.370Z,89.58
2019-02-06T04:12:08.182Z,89.36
2019-02-06T04:14:37.436Z,89.43
2019-02-06T04:17:07.569Z,89.81
2019-02-06T04:19:44.274Z,89.94
2019-02-06T04:22:13.562Z,90.04
2019-02-06T04:24:42.774Z,90.21
2019-02-06T04:27:12.313Z,90.46
2019-02-06T04:29:42.269Z,90.59
2019-02-06T04:32:13.396Z,90.60
2019-02-06T04:34:42.651Z,90.85
2019-02-06T04:37:11.906Z,91.48
2019-02-06T04:39:41.382Z,91.97
2019-02-06T04:42:10.710Z,92.37
2019-02-06T04:44:39.991Z,92.64
2019-02-06T04:47:10.103Z,92.60
2019-02-06T04:49:39.368Z,92.56
2019-02-06T04:52:09.429Z,92.40
2019-02-06T04:54:42.161Z,92.05
2019-02-06T04:57:11.397Z,91.49
2019-02-06T04:59:42.220Z,91.36
2019-02-06T05:02:11.820Z,91.02
2019-02-06T05:04:41.532Z,90.56
2019-02-06T05:07:19.177Z,90.19
2019-02-06T05:09:42.356Z,89.99
2019-02-06T05:12:11.997Z,89.86
2019-02-06T05:14:41.631Z,89.76
2019-02-06T05:17:10.939Z,89.48
2019-02-06T05:19:40.573Z,88.87
2019-02-06T05:22:14.275Z,88.48
2019-02-06T05:24:43.541Z,88.46
2019-02-06T05:27:13.636Z,88.85
2019-02-06T05:29:42.885Z,88.63
2019-02-06T05:32:12.113Z,88.81
2019-02-06T05:34:45.258Z,88.61
2019-02-06T05:37:15.428Z,88.49
2019-02-06T05:39:47.069Z,88.73
2019-02-06T05:42:16.330Z,88.82
2019-02-06T05:44:45.582Z,88.93
2019-02-06T05:47:14.815Z,89.21
2019-02-06T05:49:44.257Z,89.47
2019-02-06T05:52:14.266Z,89.79
2019-02-06T05:54:43.524Z,89.99
2019-02-06T05:57:12.761Z,90.04
2019-02-06T05:59:42.512Z,90.12
2019-02-06T06:02:11.778Z,90.08
2019-02-06T06:04:41.489Z,89.94
2019-02-06T06:07:13.059Z,89.80
2019-02-06T06:09:42.283Z,89.79
2019-02-06T06:12:11.390Z,89.66
2019-02-06T06:14:41.176Z,89.49
2019-02-06T06:17:10.436Z,89.32
2019-02-06T06:19:43.118Z,89.32
2019-02-06T06:22:13.272Z,89.28
2019-02-06T06:24:45.865Z,89.25
2019-02-06T06:27:16.935Z,89.03
2019-02-06T06:29:46.164Z,89.10
2019-02-06T06:32:15.431Z,88.81
2019-02-06T06:34:47.282Z,88.64
2019-02-06T06:37:16.816Z,88.70
2019-02-06T06:39:46.344Z,89.01
2019-02-06T06:42:15.596Z,89.21
2019-02-06T06:44:44.833Z,89.46
2019-02-06T06:47:14.791Z,89.79
2019-02-06T06:49:44.097Z,90.06
2019-02-06T06:52:13.458Z,90.58
2019-02-06T06:54:42.615Z,90.95
2019-02-06T06:57:12.459Z,91.00
2019-02-06T06:59:41.866Z,91.11
2019-02-06T07:02:11.143Z,91.36
2019-02-06T07:04:42.585Z,91.42
2019-02-06T07:07:11.920Z,91.55
2019-02-06T07:09:41.137Z,91.47
2019-02-06T07:12:10.468Z,90.90
2019-02-06T07:14:40.745Z,90.77
2019-02-06T07:17:10.005Z,90.77
2019-02-06T07:19:39.821Z,90.81
2019-02-06T07:22:10.623Z,90.51
2019-02-06T07:24:40.517Z,90.29
2019-02-06T07:27:10.464Z,89.67
2019-02-06T07:29:40.719Z,89.36
2019-02-06T07:32:10.376Z,89.15
2019-02-06T07:34:41.181Z,88.70
2019-02-06T07:37:10.456Z,88.21
2019-02-06T07:39:39.689Z,88.10
2019-02-06T07:42:08.947Z,88.24
2019-02-06T07:44:39.953Z,88.29
2019-02-06T07:47:09.706Z,88.12
2019-02-06T07:49:42.898Z,87.54
2019-02-06T07:52:12.164Z,87.46
2019-02-06T07:54:41.658Z,87.19
2019-02-06T07:57:11.776Z,86.79
2019-02-06T07:59:41.894Z,86.76
2019-02-06T08:02:11.720Z,86.46
2019-02-06T08:04:42.036Z,86.36
2019-02-06T08:07:11.629Z,86.54
2019-02-06T08:09:40.860Z,86.61
2019-02-06T08:12:14.196Z,87.53
2019-02-06T08:14:43.788Z,87.98
2019-02-06T08:17:13.485Z,88.36
2019-02-06T08:19:45.569Z,88.58
2019-02-06T08:22:14.800Z,89.08
2019-02-06T08:24:44.491Z,88.84
2019-02-06T08:27:16.947Z,88.18
2019-02-06T08:29:46.913Z,88.15
2019-02-06T08:32:16.539Z,88.10
2019-02-06T08:34:45.826Z,88.03
2019-02-06T08:37:16.811Z,87.64
2019-02-06T08:39:46.075Z,87.67
2019-02-06T08:42:15.334Z,87.45
2019-02-06T08:44:48.007Z,87.68
2019-02-06T08:47:19.077Z,87.88
2019-02-06T08:49:50.393Z,87.85
2019-02-06T08:52:21.808Z,88.19
2019-02-06T08:54:51.067Z,87.81
2019-02-06T08:57:29.234Z,87.57
2019-02-06T08:59:58.778Z,86.73
2019-02-06T09:02:28.049Z,85.95
2019-02-06T09:04:57.337Z,85.48
2019-02-06T09:07:27.245Z,84.94
2019-02-06T09:09:58.007Z,84.78
2019-02-06T09:12:29.446Z,83.38
2019-02-06T09:14:58.714Z,81.83
2019-02-06T09:17:30.118Z,81.10
2019-02-06T09:19:59.723Z,80.54
2019-02-06T09:22:28.792Z,80.35
2019-02-06T09:25:01.575Z,80.59
2019-02-06T09:27:30.847Z,80.90
2019-02-06T09:30:06.709Z,80.98
2019-02-06T09:32:40.666Z,80.49
2019-02-06T09:35:10.054Z,80.86
2019-02-06T09:37:39.784Z,80.92
2019-02-06T09:40:10.908Z,80.10
2019-02-06T09:42:42.959Z,79.17
2019-02-06T09:45:16.200Z,77.79
2019-02-06T09:47:45.529Z,78.18
2019-02-06T09:50:40.172Z,78.56
2019-02-06T09:53:09.435Z,79.14
2019-02-06T09:55:38.694Z,79.93
2019-02-06T09:58:07.920Z,79.71
2019-02-06T10:00:38.931Z,79.73
2019-02-06T10:03:10.113Z,79.85
2019-02-06T10:05:41.664Z,80.05
2019-02-06T10:08:11.276Z,80.59
2019-02-06T10:10:41.618Z,80.20
2019-02-06T10:13:11.142Z,80.51
2019-02-06T10:15:40.576Z,80.34
2019-02-06T10:18:10.924Z,80.70
2019-02-06T10:20:49.947Z,80.51
2019-02-06T10:23:19.191Z,80.11
2019-02-06T10:25:53.582Z,79.49
2019-02-06T10:28:25.846Z,80.65
2019-02-06T10:30:55.331Z,77.97
2019-02-06T10:33:24.887Z,78.09
2019-02-06T10:36:01.656Z,77.43
2019-02-06T10:38:30.901Z,76.86
2019-02-06T10:41:00.699Z,76.64
2019-02-06T10:43:32.739Z,77.67
2019-02-06T10:46:03.918Z,77.31
2019-02-06T10:48:33.176Z,77.07
2019-02-06T10:51:03.558Z,78.37
2019-02-06T10:53:33.009Z,77.60
2019-02-06T10:56:03.028Z,78.57
2019-02-06T10:58:32.478Z,78.71
2019-02-06T11:01:04.346Z,78.68
2019-02-06T11:03:33.912Z,77.65
2019-02-06T11:06:03.163Z,78.54
2019-02-06T11:08:34.737Z,78.69
2019-02-06T11:11:05.652Z,78.47
2019-02-06T11:13:36.137Z,79.27
2019-02-06T11:16:08.479Z,78.81
2019-02-06T11:18:45.137Z,78.90
2019-02-06T11:21:14.377Z,79.06
2019-02-06T11:23:45.281Z,79.18
2019-02-06T11:26:16.986Z,79.39
2019-02-06T11:28:46.262Z,79.91
2019-02-06T11:31:15.537Z,79.79
2019-02-06T11:33:44.843Z,79.60
2019-02-06T11:36:23.829Z,79.67
2019-02-06T11:38:45.146Z,81.23
2019-02-06T11:41:16.751Z,82.10
2019-02-06T11:43:47.948Z,81.77
2019-02-06T11:46:17.208Z,81.02
2019-02-06T11:48:47.552Z,80.85
2019-02-06T11:51:16.978Z,80.73
2019-02-06T11:53:49.898Z,81.26
2019-02-06T11:56:23.611Z,80.67
2019-02-06T11:58:53.284Z,81.60
2019-02-06T12:01:31.743Z,80.41
2019-02-06T12:04:01.415Z,80.17
2019-02-06T12:06:31.887Z,80.41
2019-02-06T12:09:05.608Z,81.19
2019-02-06T12:11:34.883Z,81.00
2019-02-06T12:14:04.663Z,82.09
2019-02-06T12:16:34.198Z,82.21
2019-02-06T12:19:03.752Z,82.93
2019-02-06T12:21:33.020Z,83.31
2019-02-06T12:24:02.308Z,84.12
2019-02-06T12:26:32.756Z,83.78
2019-02-06T12:29:01.994Z,83.99
2019-02-06T12:31:34.871Z,83.80
2019-02-06T12:34:04.414Z,82.98
2019-02-06T12:36:34.028Z,83.16
2019-02-06T12:39:07.592Z,83.54
2019-02-06T12:41:38.846Z,83.88
2019-02-06T12:44:08.409Z,83.98
2019-02-06T12:46:37.666Z,84.25
2019-02-06T12:49:09.082Z,83.72
2019-02-06T12:51:38.514Z,83.49
2019-02-06T12:54:10.178Z,83.73
2019-02-06T12:56:39.450Z,83.13
2019-02-06T12:59:08.683Z,82.06
2019-02-06T13:01:40.401Z,80.19
2019-02-06T13:04:09.639Z,79.61
2019-02-06T13:06:40.017Z,80.63
2019-02-06T13:09:11.958Z,81.44
2019-02-06T13:11:41.333Z,81.84
2019-02-06T13:14:14.857Z,81.72
2019-02-06T13:16:44.800Z,81.12
2019-02-06T13:19:14.299Z,80.77
2019-02-06T13:21:44.729Z,81.32
2019-02-06T13:24:14.087Z,81.42
2019-02-06T13:26:44.311Z,81.56
2019-02-06T13:29:13.795Z,80.50
2019-02-06T13:31:45.291Z,79.86
2019-02-06T13:34:14.677Z,79.02
2019-02-06T13:36:44.208Z,80.65
2019-02-06T13:39:13.480Z,82.00
2019-02-06T13:41:43.954Z,82.66
2019-02-06T13:44:16.573Z,83.18
2019-02-06T13:46:53.000Z,83.47
2019-02-06T13:49:17.519Z,83.40
2019-02-06T13:51:47.992Z,83.03
2019-02-06T13:54:20.782Z,82.59
2019-02-06T13:56:51.241Z,82.35
2019-02-06T13:59:20.940Z,82.59
2019-02-06T14:01:50.193Z,82.93
2019-02-06T14:04:19.826Z,83.61
2019-02-06T14:06:49.535Z,83.89
2019-02-06T14:09:26.953Z,83.75
2019-02-06T14:11:59.861Z,84.44
2019-02-06T14:14:29.748Z,84.82
2019-02-06T14:16:59.258Z,85.39
2019-02-06T14:19:29.334Z,86.30
2019-02-06T14:22:02.474Z,85.82
2019-02-06T14:25:02.813Z,82.88
2019-02-06T14:27:53.868Z,81.76
2019-02-06T14:30:35.889Z,81.77
2019-02-06T14:33:31.235Z,82.70
2019-02-06T14:36:23.580Z,82.52
2019-02-06T14:39:25.994Z,82.21
2019-02-06T14:43:03.771Z,82.19
2019-02-06T14:46:19.097Z,82.28
2019-02-06T14:49:35.959Z,82.20
2019-02-06T14:52:39.554Z,81.89
2019-02-06T14:55:27.590Z,82.12
2019-02-06T14:58:34.561Z,83.33
2019-02-06T15:01:57.602Z,83.61
2019-02-06T15:04:56.565Z,84.32
2019-02-06T15:08:20.342Z,84.58
2019-02-06T15:11:19.650Z,84.72
2019-02-06T15:14:39.422Z,85.15
2019-02-06T15:17:57.372Z,84.91
2019-02-06T15:21:06.450Z,85.27
2019-02-06T15:24:18.814Z,85.65
2019-02-06T15:27:26.563Z,83.86
2019-02-06T15:30:36.213Z,84.00
2019-02-06T15:33:29.415Z,83.83
2019-02-06T15:36:48.681Z,84.64
2019-02-06T15:39:35.597Z,85.69
2019-02-06T15:42:35.930Z,86.64
2019-02-06T15:45:43.132Z,87.76
2019-02-06T15:48:32.242Z,88.24
2019-02-06T15:51:20.424Z,88.01
2019-02-06T15:54:28.552Z,87.77
2019-02-06T15:57:47.590Z,86.66
2019-02-06T16:01:07.424Z,86.79
2019-02-06T16:04:53.699Z,87.99
2019-02-06T16:07:50.736Z,88.65
2019-02-06T16:10:59.721Z,89.37
2019-02-06T16:13:51.971Z,89.49
2019-02-06T16:17:09.008Z,89.68
2019-02-06T16:20:09.389Z,89.94
2019-02-06T16:23:08.950Z,90.48
2019-02-06T16:26:04.053Z,90.38
2019-02-06T16:29:08.600Z,91.03
2019-02-06T16:32:37.140Z,91.90
2019-02-06T16:35:47.199Z,92.64
2019-02-06T16:38:43.948Z,93.06
2019-02-06T16:41:40.734Z,93.45
2019-02-06T16:44:35.802Z,93.37
2019-02-06T16:47:45.064Z,93.16
2019-02-06T16:50:46.815Z,93.12
2019-02-06T16:53:29.070Z,93.09
2019-02-06T16:56:28.423Z,92.36
2019-02-06T16:59:40.897Z,92.66
2019-02-06T17:02:56.773Z,92.65
2019-02-06T17:05:43.808Z,92.83
2019-02-06T17:08:34.013Z,92.19
2019-02-06T17:11:46.010Z,92.37
2019-02-06T17:14:53.586Z,92.71
2019-02-06T17:18:15.187Z,93.20
2019-02-06T17:21:48.893Z,93.44
2019-02-06T17:24:46.065Z,93.59
2019-02-06T17:27:52.900Z,93.65
2019-02-06T17:31:01.885Z,93.74
2019-02-06T17:34:00.065Z,93.89
2019-02-06T17:37:12.508Z,93.83
2019-02-06T17:40:28.783Z,93.85
2019-02-06T17:43:37.520Z,93.99
2019-02-06T17:46:28.161Z,93.78
2019-02-06T17:49:40.752Z,93.71
2019-02-06T17:52:38.785Z,93.77
2019-02-06T17:55:27.614Z,93.74
2019-02-06T17:57:58.813Z,93.76
2019-02-06T18:00:48.025Z,93.47
2019-02-06T18:03:17.392Z,93.18
2019-02-06T18:05:47.129Z,92.81
2019-02-06T18:08:19.438Z,92.47
2019-02-06T18:10:49.346Z,92.09
2019-02-06T18:13:20.117Z,91.66
2019-02-06T18:15:51.589Z,91.67
2019-02-06T18:18:21.107Z,91.35
2019-02-06T18:20:50.539Z,90.98
2019-02-06T18:23:20.052Z,90.81
2019-02-06T18:25:53.299Z,90.65
2019-02-06T18:28:22.537Z,90.46
2019-02-06T18:30:51.913Z,90.20
2019-02-06T18:33:24.932Z,89.97
2019-02-06T18:35:55.377Z,89.82
2019-02-06T18:38:24.600Z,89.59
2019-02-06T18:40:53.908Z,89.48
2019-02-06T18:43:23.171Z,89.35
2019-02-06T18:45:53.780Z,89.78
2019-02-06T18:48:24.671Z,90.21
2019-02-06T18:50:55.504Z,90.32
2019-02-06T18:53:27.752Z,90.45
2019-02-06T18:55:57.594Z,90.63
2019-02-06T18:58:27.688Z,90.66
2019-02-06T19:00:57.409Z,90.42
2019-02-06T19:03:33.523Z,90.32
2019-02-06T19:06:04.147Z,90.27
2019-02-06T19:08:35.864Z,90.46
2019-02-06T19:11:06.241Z,90.74
2019-02-06T19:13:38.016Z,91.15
2019-02-06T19:16:07.531Z,91.37
2019-02-06T19:18:38.195Z,91.34
2019-02-06T19:21:07.486Z,91.42
2019-02-06T19:23:40.169Z,91.91
2019-02-06T19:26:09.775Z,92.41
2019-02-06T19:28:39.180Z,93.08
2019-02-06T19:31:08.392Z,93.58
2019-02-06T19:33:38.459Z,93.87
2019-02-06T19:36:08.323Z,94.13
2019-02-06T19:38:41.670Z,94.19
2019-02-06T19:41:11.606Z,94.20
2019-02-06T19:43:41.150Z,94.07
2019-02-06T19:46:10.823Z,93.96
2019-02-06T19:48:40.050Z,94.06
2019-02-06T19:51:09.309Z,94.23
2019-02-06T19:53:38.554Z,94.41
2019-02-06T19:56:09.324Z,94.47
2019-02-06T19:58:41.069Z,94.57
2019-02-06T20:01:11.224Z,94.72
2019-02-06T20:03:40.788Z,94.85
2019-02-06T20:06:29.282Z,95.23
2019-02-06T20:09:02.178Z,95.02
2019-02-06T20:11:32.161Z,94.89
2019-02-06T20:14:01.409Z,94.73
2019-02-06T20:16:33.203Z,94.78
2019-02-06T20:19:03.504Z,94.81
2019-02-06T20:21:35.062Z,94.72
2019-02-06T20:24:07.532Z,94.83
2019-02-06T20:26:44.312Z,94.59
2019-02-06T20:29:14.358Z,94.51
2019-02-06T20:31:46.349Z,94.53
2019-02-06T20:34:18.802Z,94.43
2019-02-06T20:36:48.773Z,94.19
2019-02-06T20:39:27.403Z,93.85
2019-02-06T20:41:57.434Z,93.90
2019-02-06T20:44:29.788Z,93.56
2019-02-06T20:47:02.123Z,93.58
2019-02-06T20:49:36.253Z,93.87
2019-02-06T20:52:06.388Z,94.27
2019-02-06T20:54:37.857Z,94.46
2019-02-06T20:57:13.600Z,94.41
2019-02-06T20:59:40.362Z,94.35
2019-02-06T21:02:10.041Z,94.17
2019-02-06T21:04:40.939Z,94.45
2019-02-06T21:07:12.218Z,94.75
2019-02-06T21:09:50.831Z,94.96
2019-02-06T21:12:22.331Z,95.17
2019-02-06T21:14:53.106Z,95.12
2019-02-06T21:17:24.634Z,95.10
2019-02-06T21:19:54.033Z,95.03
2019-02-06T21:22:36.703Z,95.02
2019-02-06T21:25:09.651Z,95.38
2019-02-06T21:27:44.115Z,95.18
2019-02-06T21:30:32.294Z,95.08
2019-02-06T21:33:02.900Z,95.17
2019-02-06T21:35:32.385Z,95.28
2019-02-06T21:38:06.820Z,95.27
2019-02-06T21:40:40.359Z,95.07
2019-02-06T21:43:12.557Z,94.75
2019-02-06T21:45:41.787Z,94.68
2019-02-06T21:48:11.467Z,94.74
2019-02-06T21:50:42.613Z,94.89
2019-02-06T21:53:12.532Z,94.75
2019-02-06T21:55:43.730Z,94.73
2019-02-06T21:58:13.443Z,94.56
2019-02-06T22:00:45.105Z,94.32
2019-02-06T22:03:15.399Z,94.22
2019-02-06T22:05:47.373Z,94.21
2019-02-06T22:08:17.768Z,93.89
2019-02-06T22:10:57.031Z,93.75
2019-02-06T22:13:31.238Z,93.58
2019-02-06T22:16:00.469Z,93.71
2019-02-06T22:18:35.553Z,93.72
2019-02-06T22:21:08.822Z,93.56
2019-02-06T22:23:38.570Z,93.33
2019-02-06T22:26:10.726Z,92.92
2019-02-06T22:28:41.256Z,92.39
2019-02-06T22:31:13.801Z,92.03
2019-02-06T22:33:43.406Z,91.63
2019-02-06T22:36:13.511Z,91.30
2019-02-06T22:38:48.293Z,90.89
2019-02-06T22:41:20.167Z,90.75
2019-02-06T22:44:05.990Z,91.61
2019-02-06T22:46:35.120Z,92.33
2019-02-06T22:49:04.996Z,92.95
2019-02-06T22:51:34.754Z,93.29
2019-02-06T22:54:05.888Z,93.49
2019-02-06T22:56:36.080Z,93.81
2019-02-06T22:59:05.986Z,94.01
2019-02-06T23:01:49.769Z,94.26
2019-02-06T23:04:20.372Z,93.97
2019-02-06T23:06:51.431Z,93.46
2019-02-06T23:09:22.210Z,93.70
2019-02-06T23:11:53.842Z,94.14
2019-02-06T23:14:29.190Z,94.56
2019-02-06T23:17:00.970Z,95.21
2019-02-06T23:19:32.241Z,95.68
2019-02-06T23:22:02.810Z,96.00
2019-02-06T23:24:35.409Z,95.90
2019-02-06T23:27:05.386Z,95.65
2019-02-06T23:29:34.931Z,95.59
2019-02-06T23:32:04.149Z,95.47
2019-02-06T23:34:34.846Z,95.68
2019-02-06T23:37:04.799Z,96.03
2019-02-06T23:39:34.126Z,96.36
2019-02-06T23:42:03.697Z,96.24
2019-02-06T23:44:33.690Z,96.18
2019-02-06T23:47:11.556Z,96.23
2019-02-06T23:49:45.310Z,96.73
2019-02-06T23:52:16.370Z,97.10
2019-02-06T23:54:46.238Z,97.46
2019-02-06T23:57:17.715Z,97.56
2019-02-06T23:59:47.254Z,97.68
